Terminal Aerodrome Forecast
Issued by NWS

Home | Current Version | Previous Version | Text Only | Print | Product List | Glossary On
Versions: 1 2 3 4 5 6 7 8 9 10 11 12 13 14 15 16 17 18 19 20 21
000
FTUS43 KAPX 232351 CCA
TAFPLN
TAF COR
KPLN 232351Z 2400/2424 26007KT P6SM SCT250
     FM240300 19006KT P6SM FEW200 WS015/23029KT
     FM241500 18010KT P6SM VCSH BKN035
     FM241800 20010KT P6SM -SHRA OVC030
     FM242300 22007KT P6SM VCSH OVC035=

USA.gov is the U.S. government's official web portal to all federal, state and local government web resources and services.